Kamikawa Maru — JG5687 — position and weather

sailwx.info

Track history (hours):
 
Tides and Currents Weather Stations Pressure Air Temp Water Temp Dewpoint Dewpoint Depression Visibility Wind Speed Wind Dir Waves Ship Positions

Kamikawa Maru

Last reported at 2017-Sep-26 13:00 UTC. Time now 2017-Sep-26 16:42 UTC.
Position N 34°54' E 140°00'.

Length 162 m; draft 6.8 m.

Type: Cargo ship. MMSI: 431101012.

Date/timePositionNaut miles runAvg speedWind from/ knotsBaromVisibWave heightAir tempDewpointWater temp
2017-Sep-26 13:00N 34°54' E 140°00'1020.1
2017-Sep-26 12:30N 34°53' E 139°48'1019.8
2017-Sep-26 12:00N 35°01' E 139°41'918.2
2017-Sep-26 11:30N 35°09' E 139°45'714.3
2017-Sep-26 11:00N 35°16' E 139°46'714.0
2017-Sep-26 10:30N 35°23' E 139°42'918.8
2017-Sep-26 10:01N 35°29' E 139°50'815.6
2017-Sep-26 09:30N 35°36' E 139°46'2 0.6
2017-Sep-26 06:25N 35°38' E 139°46'0 0.0
2017-Sep-26 05:55N 35°38' E 139°46'0 0.0
2017-Sep-25 23:50N 35°38' E 139°46'0 1.4
2017-Sep-25 23:31N 35°38' E 139°46'714.5
2017-Sep-25 23:01N 35°32' E 139°52'816.5
2017-Sep-25 22:31N 35°25' E 139°47'713.1
2017-Sep-25 22:00N 35°19' E 139°44'612.5
2017-Sep-25 21:30N 35°13' E 139°47'510.2
2017-Sep-25 21:00N 35°08' E 139°46'815.1
2017-Sep-25 20:30N 35°01' E 139°42'917.4
2017-Sep-25 20:00N 34°55' E 139°34'6 0.2
2017-Sep-24 06:11N 34°56' E 139°27'317.4
2017-Sep-24 06:00N 34°58' E 139°30'918.3
2017-Sep-24 05:30N 35°04' E 139°39'1019.2
2017-Sep-24 05:00N 35°11' E 139°46'612.5
2017-Sep-24 04:30N 35°17' E 139°44'714.4
2017-Sep-24 04:00N 35°24' E 139°42'918.9
2017-Sep-24 03:30N 35°31' E 139°51'815.7
2017-Sep-24 03:00N 35°37' E 139°46'1 1.2
2017-Sep-24 02:17N 35°38' E 139°46'0 0.2
2017-Sep-24 01:59N 35°38' E 139°46'0 0.1
2017-Sep-24 01:29N 35°38' E 139°46'0 0.0
2017-Sep-23 23:52N 35°38' E 139°46'0 0.0
2017-Sep-23 23:29N 35°38' E 139°46'0 0.0
2017-Sep-23 22:56N 35°38' E 139°46'0 0.0
2017-Sep-23 22:25N 35°38' E 139°46'0 0.0
2017-Sep-23 21:55N 35°38' E 139°46'1 2.6
2017-Sep-23 21:31N 35°37' E 139°46'713.3
2017-Sep-23 21:00N 35°32' E 139°52'816.6
2017-Sep-23 20:30N 35°25' E 139°47'613.0
2017-Sep-23 20:01N 35°19' E 139°44'  
2017-Sep-19 21:04N 35°04' E 140°23'2023.1
2017-Sep-19 20:11N 34°54' E 140°02'1122.7
2017-Sep-19 19:41N 34°48' E 139°50'421.3
2017-Sep-19 19:28N 34°46' E 139°45'19 0.6
2017-Sep-18 12:36N 34°55' E 139°25'218.8
2017-Sep-18 12:29N 34°56' E 139°27'918.8
2017-Sep-18 12:01N 35°01' E 139°36'918.6
2017-Sep-18 11:31N 35°08' E 139°44'815.4
2017-Sep-18 11:00N 35°15' E 139°46'612.7
2017-Sep-18 10:30N 35°21' E 139°42'917.0
2017-Sep-18 10:00N 35°28' E 139°48'4 8.2
2017-Sep-18 09:29N 35°31' E 139°52'0 0.0
2017-Sep-18 08:59N 35°31' E 139°52'0 0.1
2017-Sep-18 08:29N 35°31' E 139°52'0 0.0
2017-Sep-18 07:56N 35°31' E 139°52'0 0.0
2017-Sep-18 07:26N 35°31' E 139°52'0 0.0
2017-Sep-18 06:59N 35°31' E 139°52'0 0.0
2017-Sep-18 06:29N 35°31' E 139°52'0 0.0
2017-Sep-18 06:00N 35°31' E 139°52'0 0.0
2017-Sep-18 05:28N 35°31' E 139°52'0 0.0
2017-Sep-18 05:00N 35°31' E 139°52'0 0.0
2017-Sep-18 04:28N 35°31' E 139°52'0 0.0
2017-Sep-18 03:54N 35°31' E 139°52'0 0.0
2017-Sep-18 03:28N 35°31' E 139°52'0 0.0
2017-Sep-18 02:59N 35°31' E 139°52'0 0.0
2017-Sep-18 02:30N 35°31' E 139°52'0 0.0
2017-Sep-18 02:00N 35°31' E 139°52'0 0.3
2017-Sep-18 01:31N 35°30' E 139°52'5 9.7
2017-Sep-18 01:01N 35°26' E 139°49'2 3.4
2017-Sep-18 00:30N 35°28' E 139°48'3 5.8
2017-Sep-18 00:01N 35°28' E 139°52'510.4
2017-Sep-17 23:31N 35°26' E 139°46'612.5
2017-Sep-17 23:00N 35°30' E 139°53'713.8
2017-Sep-17 22:30N 35°25' E 139°46'612.8
2017-Sep-17 22:00N 35°30' E 139°51'611.2
2017-Sep-17 21:30N 35°25' E 139°48'4 8.1
2017-Sep-17 21:00N 35°29' E 139°50'3 5.7
2017-Sep-17 20:30N 35°31' E 139°52'0 0.0
2017-Sep-17 19:54N 35°31' E 139°52'0 0.1
2017-Sep-17 19:30N 35°31' E 139°52'0 0.1
2017-Sep-17 18:59N 35°31' E 139°52'0 0.2
2017-Sep-17 18:29N 35°31' E 139°52'0 0.1
2017-Sep-17 17:59N 35°31' E 139°52'0 0.1
2017-Sep-17 17:30N 35°31' E 139°52'0 0.2
2017-Sep-17 16:57N 35°31' E 139°52'0 0.1
2017-Sep-17 16:31N 35°31' E 139°52'0 0.2
2017-Sep-17 16:00N 35°30' E 139°52'0 0.1
2017-Sep-17 15:30N 35°30' E 139°52'0 0.1
2017-Sep-17 15:00N 35°30' E 139°52'0 0.2
2017-Sep-17 14:30N 35°30' E 139°52'0 0.0
2017-Sep-17 13:58N 35°30' E 139°52'0 0.1
2017-Sep-17 13:30N 35°30' E 139°52'0 0.1
2017-Sep-17 13:00N 35°30' E 139°52'0 0.0
2017-Sep-17 12:30N 35°30' E 139°52'0 0.1
2017-Sep-17 11:57N 35°30' E 139°52'0 0.0
2017-Sep-17 11:30N 35°30' E 139°52'0 0.0
2017-Sep-17 11:00N 35°30' E 139°52'0 0.1
2017-Sep-17 10:30N 35°30' E 139°52'0 0.1
2017-Sep-17 10:00N 35°30' E 139°52'0 0.0
2017-Sep-17 09:30N 35°30' E 139°52'0 0.0
2017-Sep-17 09:00N 35°30' E 139°52'0 0.0
2017-Sep-17 08:30N 35°30' E 139°52'0 0.1
2017-Sep-17 08:00N 35°30' E 139°52'0 0.0
2017-Sep-17 07:31N 35°30' E 139°52'5 9.2
2017-Sep-17 07:01N 35°34' E 139°49'5 9.2
2017-Sep-17 06:30N 35°38' E 139°46'0 0.1
2017-Sep-17 05:58N 35°38' E 139°46'0 0.1
2017-Sep-17 05:25N 35°38' E 139°46'0 0.0
2017-Sep-17 04:55N 35°38' E 139°46'0 0.1
2017-Sep-17 04:28N 35°38' E 139°46'0 0.1
2017-Sep-17 03:58N 35°38' E 139°46'0 0.1
2017-Sep-17 03:28N 35°38' E 139°46'0 0.0
2017-Sep-17 02:58N 35°38' E 139°46'0 0.1
2017-Sep-17 02:28N 35°38' E 139°46'0 0.1
2017-Sep-17 01:58N 35°38' E 139°46'0 0.0
2017-Sep-17 01:28N 35°38' E 139°46'0 0.0
2017-Sep-17 00:58N 35°38' E 139°46'0 0.0
2017-Sep-17 00:28N 35°38' E 139°46'0 0.0
2017-Sep-16 23:58N 35°38' E 139°46'0 0.4
2017-Sep-16 23:30N 35°38' E 139°46'611.8
2017-Sep-16 23:00N 35°33' E 139°50'714.6
2017-Sep-16 22:30N 35°26' E 139°48'713.6
2017-Sep-16 22:01N 35°20' E 139°45'612.0
2017-Sep-16 21:30N 35°14' E 139°47'815.2
2017-Sep-16 21:00N 35°07' E 139°46'917.3
2017-Sep-16 20:30N 34°58' E 139°43'  
Track history (hours):
 
Tides and Currents Weather Stations Pressure Air Temp Water Temp Dewpoint Dewpoint Depression Visibility Wind Speed Wind Dir Waves Ship Positions

Kamikawa Maru

Last reported at 2017-Sep-26 13:00 UTC. Time now 2017-Sep-26 16:42 UTC.
Position N 34°54' E 140°00'.

Length 162 m; draft 6.8 m.

Type: Cargo ship. MMSI: 431101012.

Date/timePositionNaut miles runAvg speedWind from/ knotsBaromVisibWave heightAir tempDewpointWater temp
2017-Sep-26 13:00N 34°54' E 140°00'1020.1
2017-Sep-26 12:30N 34°53' E 139°48'1019.8
2017-Sep-26 12:00N 35°01' E 139°41'918.2
2017-Sep-26 11:30N 35°09' E 139°45'714.3
2017-Sep-26 11:00N 35°16' E 139°46'714.0
2017-Sep-26 10:30N 35°23' E 139°42'918.8
2017-Sep-26 10:01N 35°29' E 139°50'815.6
2017-Sep-26 09:30N 35°36' E 139°46'2 0.6
2017-Sep-26 06:25N 35°38' E 139°46'0 0.0
2017-Sep-26 05:55N 35°38' E 139°46'0 0.0
2017-Sep-25 23:50N 35°38' E 139°46'0 1.4
2017-Sep-25 23:31N 35°38' E 139°46'714.5
2017-Sep-25 23:01N 35°32' E 139°52'816.5
2017-Sep-25 22:31N 35°25' E 139°47'713.1
2017-Sep-25 22:00N 35°19' E 139°44'612.5
2017-Sep-25 21:30N 35°13' E 139°47'510.2
2017-Sep-25 21:00N 35°08' E 139°46'815.1
2017-Sep-25 20:30N 35°01' E 139°42'917.4
2017-Sep-25 20:00N 34°55' E 139°34'6 0.2
2017-Sep-24 06:11N 34°56' E 139°27'317.4
2017-Sep-24 06:00N 34°58' E 139°30'918.3
2017-Sep-24 05:30N 35°04' E 139°39'1019.2
2017-Sep-24 05:00N 35°11' E 139°46'612.5
2017-Sep-24 04:30N 35°17' E 139°44'714.4
2017-Sep-24 04:00N 35°24' E 139°42'918.9
2017-Sep-24 03:30N 35°31' E 139°51'815.7
2017-Sep-24 03:00N 35°37' E 139°46'1 1.2
2017-Sep-24 02:17N 35°38' E 139°46'0 0.2
2017-Sep-24 01:59N 35°38' E 139°46'0 0.1
2017-Sep-24 01:29N 35°38' E 139°46'0 0.0
2017-Sep-23 23:52N 35°38' E 139°46'0 0.0
2017-Sep-23 23:29N 35°38' E 139°46'0 0.0
2017-Sep-23 22:56N 35°38' E 139°46'0 0.0
2017-Sep-23 22:25N 35°38' E 139°46'0 0.0
2017-Sep-23 21:55N 35°38' E 139°46'1 2.6
2017-Sep-23 21:31N 35°37' E 139°46'713.3
2017-Sep-23 21:00N 35°32' E 139°52'816.6
2017-Sep-23 20:30N 35°25' E 139°47'613.0
2017-Sep-23 20:01N 35°19' E 139°44'  
2017-Sep-19 21:04N 35°04' E 140°23'2023.1
2017-Sep-19 20:11N 34°54' E 140°02'1122.7
2017-Sep-19 19:41N 34°48' E 139°50'421.3
2017-Sep-19 19:28N 34°46' E 139°45'19 0.6
2017-Sep-18 12:36N 34°55' E 139°25'218.8
2017-Sep-18 12:29N 34°56' E 139°27'918.8
2017-Sep-18 12:01N 35°01' E 139°36'918.6
2017-Sep-18 11:31N 35°08' E 139°44'815.4
2017-Sep-18 11:00N 35°15' E 139°46'612.7
2017-Sep-18 10:30N 35°21' E 139°42'917.0
2017-Sep-18 10:00N 35°28' E 139°48'4 8.2
2017-Sep-18 09:29N 35°31' E 139°52'0 0.0
2017-Sep-18 08:59N 35°31' E 139°52'0 0.1
2017-Sep-18 08:29N 35°31' E 139°52'0 0.0
2017-Sep-18 07:56N 35°31' E 139°52'0 0.0
2017-Sep-18 07:26N 35°31' E 139°52'0 0.0
2017-Sep-18 06:59N 35°31' E 139°52'0 0.0
2017-Sep-18 06:29N 35°31' E 139°52'0 0.0
2017-Sep-18 06:00N 35°31' E 139°52'0 0.0
2017-Sep-18 05:28N 35°31' E 139°52'0 0.0
2017-Sep-18 05:00N 35°31' E 139°52'0 0.0
2017-Sep-18 04:28N 35°31' E 139°52'0 0.0
2017-Sep-18 03:54N 35°31' E 139°52'0 0.0
2017-Sep-18 03:28N 35°31' E 139°52'0 0.0
2017-Sep-18 02:59N 35°31' E 139°52'0 0.0
2017-Sep-18 02:30N 35°31' E 139°52'0 0.0
2017-Sep-18 02:00N 35°31' E 139°52'0 0.3
2017-Sep-18 01:31N 35°30' E 139°52'5 9.7
2017-Sep-18 01:01N 35°26' E 139°49'2 3.4
2017-Sep-18 00:30N 35°28' E 139°48'3 5.8
2017-Sep-18 00:01N 35°28' E 139°52'510.4
2017-Sep-17 23:31N 35°26' E 139°46'612.5
2017-Sep-17 23:00N 35°30' E 139°53'713.8
2017-Sep-17 22:30N 35°25' E 139°46'612.8
2017-Sep-17 22:00N 35°30' E 139°51'611.2
2017-Sep-17 21:30N 35°25' E 139°48'4 8.1
2017-Sep-17 21:00N 35°29' E 139°50'3 5.7
2017-Sep-17 20:30N 35°31' E 139°52'0 0.0
2017-Sep-17 19:54N 35°31' E 139°52'0 0.1
2017-Sep-17 19:30N 35°31' E 139°52'0 0.1
2017-Sep-17 18:59N 35°31' E 139°52'0 0.2
2017-Sep-17 18:29N 35°31' E 139°52'0 0.1
2017-Sep-17 17:59N 35°31' E 139°52'0 0.1
2017-Sep-17 17:30N 35°31' E 139°52'0 0.2
2017-Sep-17 16:57N 35°31' E 139°52'0 0.1
2017-Sep-17 16:31N 35°31' E 139°52'0 0.2
2017-Sep-17 16:00N 35°30' E 139°52'0 0.1
2017-Sep-17 15:30N 35°30' E 139°52'0 0.1
2017-Sep-17 15:00N 35°30' E 139°52'0 0.2
2017-Sep-17 14:30N 35°30' E 139°52'0 0.0
2017-Sep-17 13:58N 35°30' E 139°52'0 0.1
2017-Sep-17 13:30N 35°30' E 139°52'0 0.1
2017-Sep-17 13:00N 35°30' E 139°52'0 0.0
2017-Sep-17 12:30N 35°30' E 139°52'0 0.1
2017-Sep-17 11:57N 35°30' E 139°52'0 0.0
2017-Sep-17 11:30N 35°30' E 139°52'0 0.0
2017-Sep-17 11:00N 35°30' E 139°52'0 0.1
2017-Sep-17 10:30N 35°30' E 139°52'0 0.1
2017-Sep-17 10:00N 35°30' E 139°52'0 0.0
2017-Sep-17 09:30N 35°30' E 139°52'0 0.0
2017-Sep-17 09:00N 35°30' E 139°52'0 0.0
2017-Sep-17 08:30N 35°30' E 139°52'0 0.1
2017-Sep-17 08:00N 35°30' E 139°52'0 0.0
2017-Sep-17 07:31N 35°30' E 139°52'5 9.2
2017-Sep-17 07:01N 35°34' E 139°49'5 9.2
2017-Sep-17 06:30N 35°38' E 139°46'0 0.1
2017-Sep-17 05:58N 35°38' E 139°46'0 0.1
2017-Sep-17 05:25N 35°38' E 139°46'0 0.0
2017-Sep-17 04:55N 35°38' E 139°46'0 0.1
2017-Sep-17 04:28N 35°38' E 139°46'0 0.1
2017-Sep-17 03:58N 35°38' E 139°46'0 0.1
2017-Sep-17 03:28N 35°38' E 139°46'0 0.0
2017-Sep-17 02:58N 35°38' E 139°46'0 0.1
2017-Sep-17 02:28N 35°38' E 139°46'0 0.1
2017-Sep-17 01:58N 35°38' E 139°46'0 0.0
2017-Sep-17 01:28N 35°38' E 139°46'0 0.0
2017-Sep-17 00:58N 35°38' E 139°46'0 0.0
2017-Sep-17 00:28N 35°38' E 139°46'0 0.0
2017-Sep-16 23:58N 35°38' E 139°46'0 0.4
2017-Sep-16 23:30N 35°38' E 139°46'611.8
2017-Sep-16 23:00N 35°33' E 139°50'714.6
2017-Sep-16 22:30N 35°26' E 139°48'713.6
2017-Sep-16 22:01N 35°20' E 139°45'612.0
2017-Sep-16 21:30N 35°14' E 139°47'815.2
2017-Sep-16 21:00N 35°07' E 139°46'917.3
2017-Sep-16 20:30N 34°58' E 139°43'  

Dump ship's entire track history